createdAt,value
2022-11-16T00:01:28.112Z,15.23
2022-11-16T00:03:59.843Z,13.53
2022-11-16T00:06:29.607Z,13.97
2022-11-16T00:09:18.273Z,14.87
2022-11-16T00:11:46.862Z,13.93
2022-11-16T00:14:18.872Z,13.70
2022-11-16T00:16:47.023Z,13.13
2022-11-16T00:19:15.214Z,14.23
2022-11-16T00:24:25.918Z,12.90
2022-11-16T00:26:56.130Z,13.30
2022-11-16T00:29:27.546Z,14.40
2022-11-16T00:31:56.020Z,13.90
2022-11-16T00:34:24.959Z,11.67
2022-11-16T00:36:53.296Z,13.53
2022-11-16T00:39:21.805Z,13.87
2022-11-16T00:41:50.185Z,12.50
2022-11-16T00:44:18.889Z,14.47
2022-11-16T00:46:48.361Z,13.13
2022-11-16T00:49:16.748Z,14.00
2022-11-16T00:51:44.828Z,13.53
2022-11-16T00:54:12.865Z,12.57
2022-11-16T00:56:41.377Z,14.60
2022-11-16T00:59:09.616Z,13.50
2022-11-16T01:01:37.786Z,15.63
2022-11-16T01:04:07.407Z,14.00
2022-11-16T01:06:35.431Z,14.97
2022-11-16T01:09:03.700Z,12.77
2022-11-16T01:11:49.156Z,13.60
2022-11-16T01:14:17.344Z,13.70
2022-11-16T01:16:45.471Z,14.10
2022-11-16T01:19:14.921Z,14.53
2022-11-16T01:21:42.999Z,14.57
2022-11-16T01:37:45.238Z,17.03
2022-11-16T01:40:15.251Z,12.10
2022-11-16T01:42:43.699Z,14.90
2022-11-16T01:45:21.013Z,12.30
2022-11-16T01:47:49.172Z,14.27
2022-11-16T01:50:19.343Z,15.10
2022-11-16T01:52:51.558Z,12.17
2022-11-16T01:55:22.083Z,16.67
2022-11-16T01:57:51.208Z,13.93
2022-11-16T02:00:20.322Z,14.30
2022-11-16T02:02:48.445Z,13.20
2022-11-16T02:05:20.302Z,13.83
2022-11-16T02:08:31.476Z,16.47
2022-11-16T02:11:24.465Z,14.60
2022-11-16T02:14:05.915Z,13.60
2022-11-16T02:16:50.573Z,12.30
2022-11-16T02:19:41.693Z,12.00
2022-11-16T02:22:24.428Z,13.03
2022-11-16T02:24:59.548Z,12.43
2022-11-16T02:28:02.548Z,13.60
2022-11-16T02:30:32.393Z,12.53
2022-11-16T02:33:04.992Z,12.13
2022-11-16T02:35:37.737Z,12.00
2022-11-16T02:38:10.932Z,10.87
2022-11-16T02:40:44.310Z,13.83
2022-11-16T02:43:16.595Z,14.30
2022-11-16T02:45:50.749Z,13.63
2022-11-16T02:48:24.527Z,14.97
2022-11-16T02:50:54.251Z,13.93
2022-11-16T02:53:23.251Z,14.30
2022-11-16T02:55:51.573Z,18.03
2022-11-16T02:58:23.623Z,17.87
2022-11-16T03:06:17.623Z,15.73
2022-11-16T03:08:52.157Z,18.03
2022-11-16T03:11:37.583Z,17.70
2022-11-16T03:14:09.878Z,17.23
2022-11-16T03:16:41.931Z,16.90
2022-11-16T03:19:14.362Z,17.30
2022-11-16T03:21:48.863Z,17.57
2022-11-16T03:24:17.369Z,16.40
2022-11-16T03:26:51.690Z,16.83
2022-11-16T03:29:27.819Z,18.07
2022-11-16T03:31:59.797Z,16.17
2022-11-16T03:34:33.099Z,17.90
2022-11-16T03:37:05.201Z,18.10
2022-11-16T03:39:37.685Z,18.47
2022-11-16T03:42:10.389Z,17.30
2022-11-16T03:44:39.469Z,16.70
2022-11-16T03:47:07.671Z,17.10
2022-11-16T03:49:35.678Z,20.30
2022-11-16T03:52:06.037Z,14.83
2022-11-16T03:54:34.176Z,17.17
2022-11-16T03:57:02.201Z,16.30
2022-11-16T03:59:30.292Z,15.27
2022-11-16T04:01:58.317Z,13.93
2022-11-16T04:04:40.244Z,15.63
2022-11-16T04:07:27.535Z,16.70
2022-11-16T04:10:12.888Z,14.00
2022-11-16T04:13:01.337Z,18.67
2022-11-16T04:15:46.994Z,13.33
2022-11-16T04:18:32.922Z,14.73
2022-11-16T04:21:18.868Z,12.27
2022-11-16T04:24:06.520Z,14.03
2022-11-16T04:26:52.126Z,13.43
2022-11-16T04:29:20.891Z,14.43
2022-11-16T04:32:06.424Z,15.17
2022-11-16T04:34:48.419Z,15.17
2022-11-16T04:37:35.839Z,13.33
2022-11-16T04:40:06.311Z,11.80
2022-11-16T04:42:34.335Z,12.23
2022-11-16T04:45:20.015Z,12.17
2022-11-16T04:47:49.882Z,12.90
2022-11-16T04:50:18.580Z,11.70
2022-11-16T04:52:46.892Z,12.47
2022-11-16T04:55:16.447Z,11.93
2022-11-16T04:57:44.478Z,12.73
2022-11-16T05:00:13.810Z,12.37
2022-11-16T05:02:41.800Z,11.53
2022-11-16T05:05:10.487Z,12.17
2022-11-16T05:07:38.764Z,10.80
2022-11-16T05:10:07.907Z,11.17
2022-11-16T05:12:38.056Z,9.43
2022-11-16T05:15:07.387Z,8.47
2022-11-16T05:17:35.884Z,10.10
2022-11-16T05:20:21.415Z,7.77
2022-11-16T05:22:54.680Z,8.13
2022-11-16T05:25:23.105Z,7.70
2022-11-16T05:27:52.595Z,7.70
2022-11-16T05:30:20.976Z,8.77
2022-11-16T05:32:49.000Z,6.63
2022-11-16T05:35:17.074Z,7.10
2022-11-16T05:37:45.138Z,4.73
2022-11-16T05:40:13.640Z,6.87
2022-11-16T05:42:41.663Z,5.13
2022-11-16T05:45:12.725Z,4.70
2022-11-16T05:47:42.868Z,6.77
2022-11-16T05:50:11.319Z,5.07
2022-11-16T05:52:39.310Z,3.67
2022-11-16T05:55:08.053Z,5.67
2022-11-16T05:57:36.486Z,4.93
2022-11-16T06:00:05.686Z,5.60
2022-11-16T06:02:35.199Z,4.50
2022-11-16T06:05:03.232Z,3.33
2022-11-16T06:07:31.459Z,5.03
2022-11-16T06:09:59.583Z,3.10
2022-11-16T06:12:27.594Z,9.30
2022-11-16T06:14:55.643Z,3.60
2022-11-16T06:17:23.672Z,8.20
2022-11-16T06:19:53.120Z,2.43
2022-11-16T06:22:21.203Z,2.33
2022-11-16T06:24:49.185Z,4.07
2022-11-16T06:27:17.192Z,6.93
2022-11-16T06:29:45.262Z,6.77
2022-11-16T06:32:13.246Z,6.57
2022-11-16T06:34:41.285Z,2.90
2022-11-16T06:37:10.802Z,7.53
2022-11-16T06:39:38.848Z,7.90
2022-11-16T06:42:06.879Z,8.97
2022-11-16T06:44:36.804Z,7.70
2022-11-16T06:47:05.246Z,6.80
2022-11-16T06:49:33.279Z,3.13
2022-11-16T06:52:01.419Z,5.00
2022-11-16T06:54:30.822Z,5.93
2022-11-16T06:56:58.916Z,9.07
2022-11-16T06:59:26.935Z,5.03
2022-11-16T07:01:54.939Z,5.17
2022-11-16T07:04:23.017Z,6.67
2022-11-16T07:06:51.164Z,6.83
2022-11-16T07:09:19.393Z,4.70
2022-11-16T07:11:48.803Z,4.60
2022-11-16T07:14:17.585Z,5.60
2022-11-16T07:16:45.602Z,4.60
2022-11-16T07:19:13.798Z,4.87
2022-11-16T07:21:41.974Z,6.87
2022-11-16T07:24:09.962Z,6.37
2022-11-16T07:26:37.995Z,8.47
2022-11-16T07:29:07.635Z,7.33
2022-11-16T07:31:35.632Z,7.30
2022-11-16T07:34:03.730Z,8.40
2022-11-16T07:36:31.766Z,8.23
2022-11-16T07:38:59.827Z,6.80
2022-11-16T07:41:27.851Z,8.03
2022-11-16T07:43:56.937Z,7.03
2022-11-16T07:49:16.007Z,8.33
2022-11-16T07:51:45.707Z,6.67
2022-11-16T07:54:14.109Z,7.83
2022-11-16T07:56:42.777Z,7.20
2022-11-16T07:59:10.982Z,11.77
2022-11-16T08:01:40.483Z,7.30
2022-11-16T08:04:08.596Z,9.77
2022-11-16T08:06:36.783Z,8.70
2022-11-16T08:09:04.976Z,6.63
2022-11-16T08:11:33.058Z,7.03
2022-11-16T08:14:01.075Z,7.57
2022-11-16T08:16:29.315Z,8.37
2022-11-16T08:18:58.715Z,9.90
2022-11-16T08:21:26.794Z,7.37
2022-11-16T08:23:58.359Z,6.20
2022-11-16T08:26:27.241Z,7.43
2022-11-16T08:28:56.580Z,5.27
2022-11-16T08:31:27.097Z,4.70
2022-11-16T08:33:55.620Z,4.50
2022-11-16T08:36:25.053Z,5.50
2022-11-16T08:38:53.882Z,5.10
2022-11-16T08:41:22.681Z,8.43
2022-11-16T08:43:53.320Z,3.67
2022-11-16T08:46:22.001Z,4.40
2022-11-16T08:48:50.085Z,4.40
2022-11-16T08:51:20.351Z,8.70
2022-11-16T08:53:50.725Z,7.77
2022-11-16T08:56:19.662Z,6.73
2022-11-16T08:58:51.320Z,8.27
2022-11-16T09:01:24.599Z,6.70
2022-11-16T09:03:53.814Z,9.97
2022-11-16T09:06:22.386Z,6.27
2022-11-16T09:08:52.075Z,6.47
2022-11-16T09:11:22.841Z,8.40
2022-11-16T09:13:52.707Z,7.33
2022-11-16T09:16:21.936Z,5.70
2022-11-16T09:18:51.225Z,10.27
2022-11-16T09:21:20.481Z,5.10
2022-11-16T09:23:49.430Z,6.87
2022-11-16T09:26:21.439Z,8.00
2022-11-16T09:28:55.169Z,7.33
2022-11-16T09:31:24.136Z,7.53
2022-11-16T09:33:52.211Z,13.27
2022-11-16T09:36:20.692Z,7.57
2022-11-16T09:41:57.428Z,7.10
2022-11-16T09:44:44.524Z,9.63
2022-11-16T09:47:18.107Z,8.70
2022-11-16T09:49:52.326Z,6.03
2022-11-16T09:52:27.515Z,8.47
2022-11-16T09:54:59.158Z,7.80
2022-11-16T09:57:33.695Z,9.40
2022-11-16T10:00:05.741Z,7.27
2022-11-16T10:02:37.774Z,10.57
2022-11-16T10:05:14.591Z,4.47
2022-11-16T10:07:46.004Z,7.37
2022-11-16T10:10:15.867Z,7.30
2022-11-16T10:12:49.805Z,9.93
2022-11-16T10:15:35.600Z,7.73
2022-11-16T10:18:16.300Z,6.40
2022-11-16T10:20:58.804Z,4.60
2022-11-16T10:23:38.927Z,4.40
2022-11-16T10:26:16.771Z,4.10
2022-11-16T10:29:02.612Z,8.23
2022-11-16T10:31:45.120Z,7.23
2022-11-16T10:34:20.786Z,8.03
2022-11-16T10:36:48.936Z,5.07
2022-11-16T10:39:20.333Z,5.47
2022-11-16T10:41:50.984Z,10.40
2022-11-16T10:44:25.504Z,7.50
2022-11-16T10:47:01.354Z,6.17
2022-11-16T10:49:37.728Z,4.67
2022-11-16T10:52:06.056Z,7.23
2022-11-16T10:54:34.196Z,6.87
2022-11-16T10:57:06.274Z,9.03
2022-11-16T10:59:43.313Z,10.00
2022-11-16T11:02:34.653Z,5.90
2022-11-16T11:05:16.404Z,8.27
2022-11-16T11:07:54.078Z,7.83
2022-11-16T11:10:30.505Z,6.07
2022-11-16T11:13:22.263Z,8.47
2022-11-16T11:15:51.712Z,8.63
2022-11-16T11:18:26.747Z,6.67
2022-11-16T11:21:07.782Z,6.37
2022-11-16T11:23:48.005Z,7.30
2022-11-16T11:26:36.309Z,7.00
2022-11-16T11:29:16.456Z,4.17
2022-11-16T11:31:48.471Z,6.90
2022-11-16T11:34:20.129Z,4.73
2022-11-16T11:36:51.140Z,5.63
2022-11-16T11:39:32.649Z,5.87
2022-11-16T11:42:07.216Z,5.10
2022-11-16T11:44:44.637Z,5.07
2022-11-16T11:47:56.060Z,6.07
2022-11-16T11:50:20.770Z,5.87
2022-11-16T11:53:00.272Z,5.17
2022-11-16T11:55:28.680Z,4.20
2022-11-16T11:57:58.585Z,3.87
2022-11-16T12:00:27.247Z,5.40
2022-11-16T12:03:28.085Z,4.83
2022-11-16T12:06:09.664Z,5.80
2022-11-16T12:08:59.227Z,3.47
2022-11-16T12:11:34.661Z,6.73
2022-11-16T12:14:19.325Z,8.27
2022-11-16T12:16:53.450Z,6.50
2022-11-16T12:19:46.669Z,8.80
2022-11-16T12:22:30.434Z,4.87
2022-11-16T12:25:12.398Z,5.07
2022-11-16T12:27:49.861Z,8.80
2022-11-16T12:30:21.052Z,3.07
2022-11-16T12:44:44.620Z,5.30
2022-11-16T12:47:22.772Z,3.67
2022-11-16T12:50:05.062Z,4.23
2022-11-16T12:52:50.043Z,5.37
2022-11-16T12:55:27.281Z,2.37
2022-11-16T12:58:11.585Z,4.57
2022-11-16T13:01:03.198Z,5.30
2022-11-16T13:03:36.486Z,3.23
2022-11-16T13:06:08.582Z,4.50
2022-11-16T13:08:48.152Z,5.30
2022-11-16T13:11:21.686Z,6.13
2022-11-16T13:13:53.976Z,6.33
2022-11-16T13:16:25.253Z,6.90
2022-11-16T13:18:54.985Z,5.13
2022-11-16T13:21:39.476Z,4.93
2022-11-16T13:24:24.911Z,5.00
2022-11-16T13:26:59.889Z,2.97
2022-11-16T13:29:37.733Z,5.03
2022-11-16T13:32:14.947Z,2.53
2022-11-16T13:34:43.382Z,5.87
2022-11-16T13:37:43.047Z,7.97
2022-11-16T13:40:21.700Z,6.33
2022-11-16T13:43:08.361Z,3.20
2022-11-16T13:45:39.901Z,1.80
2022-11-16T13:48:24.451Z,5.07
2022-11-16T13:50:56.000Z,8.97
2022-11-16T13:56:16.847Z,7.40
2022-11-16T13:58:48.171Z,4.70
2022-11-16T14:09:35.759Z,3.30
2022-11-16T14:12:59.743Z,4.67
2022-11-16T14:15:33.580Z,4.43
2022-11-16T14:18:34.138Z,2.83
2022-11-16T14:21:10.606Z,4.20
2022-11-16T14:24:03.629Z,5.13
2022-11-16T14:26:47.758Z,3.53
2022-11-16T14:29:41.351Z,3.20
2022-11-16T14:32:21.892Z,4.60
2022-11-16T14:34:52.123Z,3.13
2022-11-16T14:37:33.575Z,5.40
2022-11-16T14:40:07.598Z,4.43
2022-11-16T14:43:09.990Z,6.33
2022-11-16T14:45:39.755Z,4.07
2022-11-16T14:48:15.618Z,3.27
2022-11-16T14:50:44.937Z,3.30
2022-11-16T14:53:17.884Z,6.13
2022-11-16T14:55:46.669Z,3.00
2022-11-16T14:58:20.141Z,4.83
2022-11-16T15:00:56.337Z,5.20
2022-11-16T15:03:26.541Z,5.53
2022-11-16T15:05:58.557Z,7.37
2022-11-16T15:08:32.109Z,5.40
2022-11-16T15:11:00.960Z,6.07
2022-11-16T15:13:29.023Z,7.37
2022-11-16T15:16:12.159Z,5.30
2022-11-16T15:18:40.284Z,5.80
2022-11-16T15:21:22.440Z,6.40
2022-11-16T15:24:15.595Z,4.80
2022-11-16T15:26:40.205Z,5.17
2022-11-16T15:29:16.005Z,7.97
2022-11-16T15:31:45.829Z,5.50
2022-11-16T15:34:14.269Z,4.97
2022-11-16T15:36:42.477Z,3.03
2022-11-16T15:39:15.231Z,3.57
2022-11-16T15:41:43.853Z,5.50
2022-11-16T15:44:16.051Z,3.93
2022-11-16T15:46:48.798Z,4.43
2022-11-16T15:49:28.540Z,3.77
2022-11-16T15:51:57.535Z,5.07
2022-11-16T15:54:27.405Z,5.77
2022-11-16T15:56:57.745Z,2.70
2022-11-16T15:59:29.200Z,3.63
2022-11-16T16:01:58.845Z,5.97
2022-11-16T16:04:28.890Z,3.43
2022-11-16T16:06:58.618Z,6.67
2022-11-16T16:09:28.394Z,6.40
2022-11-16T16:11:58.500Z,3.93
2022-11-16T16:14:29.346Z,3.03
2022-11-16T16:17:00.750Z,7.27
2022-11-16T16:19:38.343Z,4.30
2022-11-16T16:22:13.142Z,4.30
2022-11-16T16:24:44.121Z,5.70
2022-11-16T16:27:14.198Z,5.97
2022-11-16T16:29:42.409Z,4.17
2022-11-16T16:32:15.204Z,5.33
2022-11-16T16:34:43.315Z,5.37
2022-11-16T16:37:14.881Z,5.67
2022-11-16T16:39:43.144Z,3.07
2022-11-16T16:42:13.032Z,5.47
2022-11-16T16:44:41.147Z,3.57
2022-11-16T16:47:09.653Z,7.77
2022-11-16T16:49:39.291Z,2.93
2022-11-16T16:52:08.098Z,2.77
2022-11-16T16:54:36.210Z,6.53
2022-11-16T16:57:04.414Z,4.23
2022-11-16T16:59:32.716Z,4.43
2022-11-16T17:02:01.179Z,2.57
2022-11-16T17:04:29.300Z,4.20
2022-11-16T17:06:58.767Z,6.63
2022-11-16T17:09:26.878Z,5.40
2022-11-16T17:11:54.938Z,2.97
2022-11-16T17:14:24.605Z,3.83
2022-11-16T17:16:53.995Z,4.27
2022-11-16T17:19:22.144Z,3.27
2022-11-16T17:21:51.955Z,5.30
2022-11-16T17:24:28.163Z,3.93
2022-11-16T17:26:56.208Z,4.90
2022-11-16T17:29:24.439Z,3.63
2022-11-16T17:31:52.504Z,5.87
2022-11-16T17:34:20.559Z,4.27
2022-11-16T17:36:48.690Z,3.23
2022-11-16T17:39:17.019Z,2.13
2022-11-16T17:41:46.574Z,2.67
2022-11-16T17:44:20.200Z,3.17
2022-11-16T17:46:49.789Z,4.27
2022-11-16T17:49:17.800Z,2.00
2022-11-16T17:51:45.864Z,3.87
2022-11-16T17:54:14.167Z,2.87
2022-11-16T17:56:42.193Z,1.97
2022-11-16T17:59:11.657Z,5.97
2022-11-16T18:01:39.821Z,3.87
2022-11-16T18:04:07.983Z,4.03
2022-11-16T18:06:36.268Z,7.90
2022-11-16T18:09:04.404Z,3.83
2022-11-16T18:11:32.591Z,4.13
2022-11-16T18:14:02.018Z,4.43
2022-11-16T18:16:33.021Z,4.90
2022-11-16T18:19:02.314Z,2.50
2022-11-16T18:21:30.634Z,3.37
2022-11-16T18:24:00.540Z,5.13
2022-11-16T18:26:28.622Z,1.83
2022-11-16T18:28:56.689Z,6.70
2022-11-16T18:31:25.672Z,8.93
2022-11-16T18:33:55.047Z,5.80
2022-11-16T18:36:23.644Z,4.20
2022-11-16T18:38:51.852Z,3.27
2022-11-16T18:41:22.543Z,4.67
2022-11-16T18:43:52.582Z,1.67
2022-11-16T18:46:22.072Z,6.93
2022-11-16T18:48:50.434Z,5.57
2022-11-16T18:51:20.873Z,2.63
2022-11-16T18:53:49.289Z,2.70
2022-11-16T18:56:18.581Z,2.40
2022-11-16T18:58:52.032Z,3.70
2022-11-16T19:01:22.958Z,3.10
2022-11-16T19:03:51.350Z,4.17
2022-11-16T19:06:21.659Z,3.97
2022-11-16T19:08:56.353Z,2.50
2022-11-16T19:11:25.033Z,2.83
2022-11-16T19:13:54.893Z,3.30
2022-11-16T19:16:24.438Z,6.83
2022-11-16T19:18:53.146Z,3.13
2022-11-16T19:21:23.588Z,2.57
2022-11-16T19:23:53.090Z,3.90
2022-11-16T19:26:23.565Z,3.43
2022-11-16T19:28:52.622Z,2.07
2022-11-16T19:31:22.599Z,3.53
2022-11-16T19:33:55.164Z,1.07
2022-11-16T19:36:25.410Z,3.93
2022-11-16T19:38:53.562Z,4.50
2022-11-16T19:41:22.832Z,3.93
2022-11-16T19:43:52.602Z,2.23
2022-11-16T19:46:21.675Z,4.20
2022-11-16T19:48:50.397Z,3.73
2022-11-16T19:51:20.914Z,2.10
2022-11-16T19:53:50.351Z,2.30
2022-11-16T19:56:19.945Z,4.47
2022-11-16T19:58:48.495Z,2.90
2022-11-16T20:01:18.861Z,3.27
2022-11-16T20:03:48.482Z,5.33
2022-11-16T20:06:22.453Z,5.43
2022-11-16T20:08:53.335Z,2.80
2022-11-16T20:11:22.992Z,4.73
2022-11-16T20:13:52.357Z,5.17
2022-11-16T20:16:22.194Z,4.17
2022-11-16T20:18:51.865Z,5.73
2022-11-16T20:21:23.291Z,2.77
2022-11-16T20:23:54.014Z,4.60
2022-11-16T20:26:22.742Z,5.30
2022-11-16T20:28:52.497Z,2.70
2022-11-16T20:31:22.220Z,4.13
2022-11-16T20:33:54.562Z,3.63
2022-11-16T20:36:23.799Z,5.37
2022-11-16T20:38:53.662Z,5.27
2022-11-16T20:41:23.550Z,3.53
2022-11-16T20:43:52.855Z,2.93
2022-11-16T20:46:22.554Z,3.57
2022-11-16T20:48:50.932Z,2.37
2022-11-16T20:51:20.271Z,2.20
2022-11-16T20:53:49.511Z,4.50
2022-11-16T20:56:20.154Z,4.60
2022-11-16T20:58:48.576Z,3.50
2022-11-16T21:01:18.509Z,5.60
2022-11-16T21:03:46.932Z,3.40
2022-11-16T21:06:15.821Z,2.50
2022-11-16T21:08:43.903Z,3.67
2022-11-16T21:11:12.827Z,4.43
2022-11-16T21:13:59.685Z,3.37
2022-11-16T21:16:27.892Z,6.27
2022-11-16T21:18:56.025Z,5.93
2022-11-16T21:21:25.240Z,5.63
2022-11-16T21:23:54.897Z,2.73
2022-11-16T21:26:25.006Z,4.93
2022-11-16T21:28:54.734Z,4.00
2022-11-16T21:31:25.687Z,4.37
2022-11-16T21:33:55.280Z,3.97
2022-11-16T21:36:25.866Z,3.40
2022-11-16T21:38:54.759Z,3.50
2022-11-16T21:41:24.398Z,7.57
2022-11-16T21:43:54.088Z,6.80
2022-11-16T21:46:24.848Z,2.77
2022-11-16T21:48:54.546Z,3.30
2022-11-16T21:51:24.794Z,5.40
2022-11-16T21:53:53.499Z,3.67
2022-11-16T21:56:22.872Z,2.93
2022-11-16T21:58:52.799Z,2.43
2022-11-16T22:01:23.018Z,3.60
2022-11-16T22:04:05.525Z,5.43
2022-11-16T22:06:50.871Z,3.90
2022-11-16T22:09:19.012Z,5.90
2022-11-16T22:11:47.044Z,4.80
2022-11-16T22:14:15.125Z,3.00
2022-11-16T22:16:44.624Z,4.23
2022-11-16T22:19:12.733Z,3.20
2022-11-16T22:21:40.914Z,4.70
2022-11-16T22:24:09.647Z,5.13
2022-11-16T22:26:38.176Z,4.03
2022-11-16T22:29:06.307Z,6.27
2022-11-16T22:31:34.384Z,4.90
2022-11-16T22:34:04.020Z,4.43
2022-11-16T22:36:32.069Z,7.93
2022-11-16T22:39:00.232Z,6.07
2022-11-16T22:41:28.278Z,5.57
2022-11-16T22:43:56.329Z,2.93
2022-11-16T22:46:24.314Z,3.70
2022-11-16T22:48:52.357Z,4.00
2022-11-16T22:51:23.351Z,5.50
2022-11-16T22:53:54.227Z,4.53
2022-11-16T22:56:22.480Z,5.63
2022-11-16T22:58:50.630Z,6.67
2022-11-16T23:01:19.278Z,8.90
2022-11-16T23:03:48.011Z,3.90
2022-11-16T23:06:16.756Z,4.73
2022-11-16T23:08:46.324Z,3.87
2022-11-16T23:11:33.592Z,4.80
2022-11-16T23:14:19.462Z,6.70
2022-11-16T23:16:48.198Z,7.97
2022-11-16T23:19:35.660Z,5.20
2022-11-16T23:22:21.622Z,6.93
2022-11-16T23:25:08.333Z,6.67
2022-11-16T23:27:41.431Z,9.30
2022-11-16T23:30:13.181Z,4.73
2022-11-16T23:32:42.124Z,5.30
2022-11-16T23:35:12.042Z,6.83
2022-11-16T23:37:52.458Z,4.03
2022-11-16T23:40:23.636Z,6.20
2022-11-16T23:43:10.704Z,7.60
2022-11-16T23:45:39.036Z,7.70
2022-11-16T23:48:07.921Z,9.43
2022-11-16T23:50:36.673Z,6.57
2022-11-16T23:53:05.592Z,6.17
2022-11-16T23:55:35.566Z,11.00
2022-11-16T23:58:04.484Z,7.53
